createdAt,value
2019-03-29T00:00:32.027Z,8.20
2019-03-29T00:03:06.074Z,8.20
2019-03-29T00:05:39.932Z,8.20
2019-03-29T00:08:13.695Z,8.10
2019-03-29T00:10:47.325Z,8.00
2019-03-29T00:13:40.182Z,7.90
2019-03-29T00:16:13.820Z,7.90
2019-03-29T00:18:47.468Z,8.00
2019-03-29T00:21:21.072Z,8.00
2019-03-29T00:24:06.198Z,8.00
2019-03-29T00:26:31.597Z,8.00
2019-03-29T00:29:07.066Z,8.10
2019-03-29T00:31:40.715Z,8.00
2019-03-29T00:34:14.335Z,8.10
2019-03-29T00:36:48.248Z,8.10
2019-03-29T00:39:21.883Z,8.00
2019-03-29T00:41:55.489Z,8.00
2019-03-29T00:44:29.305Z,7.70
2019-03-29T00:47:03.357Z,7.60
2019-03-29T00:49:37.673Z,7.60
2019-03-29T00:52:11.595Z,7.60
2019-03-29T00:54:45.223Z,7.50
2019-03-29T00:57:18.947Z,7.60
2019-03-29T00:59:52.611Z,7.70
2019-03-29T01:02:26.192Z,7.70
2019-03-29T01:04:59.821Z,7.70
2019-03-29T01:07:33.512Z,7.80
2019-03-29T01:10:07.656Z,7.70
2019-03-29T01:12:42.519Z,7.70
2019-03-29T01:15:16.164Z,7.70
2019-03-29T01:17:49.952Z,7.60
2019-03-29T01:20:23.629Z,7.50
2019-03-29T01:22:57.982Z,7.40
2019-03-29T01:25:31.635Z,7.30
2019-03-29T01:28:05.272Z,7.30
2019-03-29T01:30:38.869Z,7.30
2019-03-29T01:33:12.546Z,7.40
2019-03-29T01:35:46.196Z,7.30
2019-03-29T01:38:22.018Z,7.40
2019-03-29T01:40:55.418Z,7.50
2019-03-29T01:43:29.190Z,7.50
2019-03-29T01:46:02.820Z,7.50
2019-03-29T01:48:36.542Z,7.60
2019-03-29T01:51:10.174Z,7.60
2019-03-29T01:53:43.836Z,7.60
2019-03-29T01:56:17.443Z,7.50
2019-03-29T01:58:51.230Z,7.50
2019-03-29T02:01:28.419Z,7.40
2019-03-29T02:04:05.641Z,7.40
2019-03-29T02:06:38.681Z,7.40
2019-03-29T02:09:12.321Z,7.40
2019-03-29T02:11:46.006Z,7.30
2019-03-29T02:14:21.515Z,7.30
2019-03-29T02:16:56.942Z,7.30
2019-03-29T02:19:31.240Z,7.10
2019-03-29T02:22:05.487Z,7.10
2019-03-29T02:24:39.259Z,7.00
2019-03-29T02:27:12.983Z,7.00
2019-03-29T02:29:46.680Z,7.00
2019-03-29T02:32:20.305Z,7.00
2019-03-29T02:34:53.966Z,7.10
2019-03-29T02:37:29.464Z,7.10
2019-03-29T02:40:03.891Z,7.10
2019-03-29T02:42:37.493Z,7.10
2019-03-29T02:45:11.291Z,7.10
2019-03-29T02:47:44.892Z,7.10
2019-03-29T02:50:18.542Z,7.10
2019-03-29T02:52:52.396Z,7.10
2019-03-29T02:55:26.074Z,7.10
2019-03-29T02:57:59.755Z,7.00
2019-03-29T03:00:33.584Z,7.10
2019-03-29T03:03:07.420Z,7.00
2019-03-29T03:05:41.015Z,7.00
2019-03-29T03:08:14.627Z,7.00
2019-03-29T03:10:48.260Z,6.90
2019-03-29T03:13:21.954Z,6.90
2019-03-29T03:15:55.589Z,7.00
2019-03-29T03:18:29.277Z,7.00
2019-03-29T03:21:04.385Z,6.90
2019-03-29T03:23:38.145Z,6.70
2019-03-29T03:26:11.760Z,6.60
2019-03-29T03:28:45.506Z,6.60
2019-03-29T03:31:19.334Z,6.70
2019-03-29T03:33:53.000Z,6.70
2019-03-29T03:36:26.579Z,6.60
2019-03-29T03:39:00.209Z,6.70
2019-03-29T03:41:34.017Z,6.80
2019-03-29T03:44:07.641Z,6.70
2019-03-29T03:46:41.271Z,6.60
2019-03-29T03:49:14.933Z,6.60
2019-03-29T03:51:48.655Z,6.50
2019-03-29T03:54:22.597Z,6.40
2019-03-29T03:56:56.721Z,6.30
2019-03-29T03:59:31.882Z,6.30
2019-03-29T04:02:05.511Z,6.20
2019-03-29T04:04:39.332Z,6.20
2019-03-29T04:07:13.059Z,6.30
2019-03-29T04:09:49.784Z,6.30
2019-03-29T04:12:22.833Z,6.40
2019-03-29T04:14:56.468Z,6.50
2019-03-29T04:17:31.391Z,6.50
2019-03-29T04:20:05.756Z,6.50
2019-03-29T04:22:39.448Z,6.60
2019-03-29T04:25:13.250Z,6.70
2019-03-29T04:27:46.948Z,6.70
2019-03-29T04:30:20.695Z,6.70
2019-03-29T04:32:54.319Z,6.70
2019-03-29T04:35:28.059Z,6.60
2019-03-29T04:38:01.670Z,6.60
2019-03-29T04:40:35.555Z,6.50
2019-03-29T04:43:09.193Z,6.30
2019-03-29T04:45:42.927Z,6.30
2019-03-29T04:48:16.556Z,6.40
2019-03-29T04:50:50.290Z,6.40
2019-03-29T04:53:23.953Z,6.30
2019-03-29T04:55:58.652Z,6.30
2019-03-29T04:58:32.293Z,6.30
2019-03-29T05:01:06.037Z,6.40
2019-03-29T05:03:39.670Z,6.40
2019-03-29T05:06:13.287Z,6.30
2019-03-29T05:08:46.937Z,6.30
2019-03-29T05:11:20.558Z,6.40
2019-03-29T05:13:54.292Z,6.40
2019-03-29T05:16:27.992Z,6.40
2019-03-29T05:19:01.629Z,6.40
2019-03-29T05:21:35.696Z,6.40
2019-03-29T05:24:09.504Z,6.40
2019-03-29T05:26:43.168Z,6.40
2019-03-29T05:29:16.871Z,6.30
2019-03-29T05:31:53.572Z,6.50
2019-03-29T05:34:26.072Z,6.50
2019-03-29T05:36:59.839Z,6.80
2019-03-29T05:39:33.612Z,7.20
2019-03-29T05:42:07.216Z,7.60
2019-03-29T05:44:41.062Z,7.90
2019-03-29T05:47:14.816Z,8.20
2019-03-29T05:49:48.431Z,8.40
2019-03-29T05:52:22.102Z,8.80
2019-03-29T05:54:55.756Z,9.00
2019-03-29T05:57:29.401Z,9.50
2019-03-29T06:00:03.670Z,9.70
2019-03-29T06:02:37.638Z,9.90
2019-03-29T06:05:11.289Z,10.20
2019-03-29T06:07:45.065Z,10.20
2019-03-29T06:10:18.679Z,10.30
2019-03-29T06:12:52.311Z,10.60
2019-03-29T06:15:25.945Z,10.90
2019-03-29T06:17:59.569Z,11.30
2019-03-29T06:20:33.228Z,11.30
2019-03-29T06:23:06.979Z,11.40
2019-03-29T06:25:40.692Z,12.10
2019-03-29T06:28:14.463Z,12.00
2019-03-29T06:30:48.069Z,12.30
2019-03-29T06:33:21.774Z,12.80
2019-03-29T06:35:58.445Z,13.50
2019-03-29T06:38:35.232Z,13.50
2019-03-29T06:41:08.866Z,13.90
2019-03-29T06:43:42.543Z,13.80
2019-03-29T06:46:16.238Z,13.50
2019-03-29T06:48:50.129Z,13.50
2019-03-29T06:51:23.754Z,13.90
2019-03-29T06:53:57.434Z,13.50
2019-03-29T06:56:31.150Z,13.90
2019-03-29T06:59:04.896Z,14.20
2019-03-29T07:01:38.745Z,14.70
2019-03-29T07:04:12.536Z,14.60
2019-03-29T07:06:46.288Z,14.70
2019-03-29T07:09:19.914Z,14.70
2019-03-29T07:11:53.510Z,14.60
2019-03-29T07:14:27.160Z,14.30
2019-03-29T07:17:00.924Z,14.60
2019-03-29T07:19:34.654Z,14.70
2019-03-29T07:22:08.321Z,14.70
2019-03-29T07:24:42.009Z,14.50
2019-03-29T07:27:15.607Z,14.70
2019-03-29T07:29:49.359Z,14.30
2019-03-29T07:32:22.951Z,14.30
2019-03-29T07:34:56.583Z,14.90
2019-03-29T07:37:30.200Z,15.00
2019-03-29T07:40:04.564Z,15.40
2019-03-29T07:42:38.252Z,15.40
2019-03-29T07:45:12.049Z,15.00
2019-03-29T07:47:45.664Z,14.70
2019-03-29T07:50:19.549Z,14.30
2019-03-29T07:52:53.579Z,14.00
2019-03-29T07:55:27.225Z,13.80
2019-03-29T07:58:00.936Z,14.40
2019-03-29T08:00:34.580Z,14.80
2019-03-29T08:03:08.204Z,14.60
2019-03-29T08:05:42.821Z,14.70
2019-03-29T08:08:24.139Z,14.90
2019-03-29T08:10:53.965Z,14.60
2019-03-29T08:13:27.609Z,15.00
2019-03-29T08:16:01.642Z,15.20
2019-03-29T08:18:35.240Z,15.20
2019-03-29T08:21:08.856Z,15.20
2019-03-29T08:23:42.674Z,15.20
2019-03-29T08:26:17.534Z,15.40
2019-03-29T08:28:52.244Z,15.20
2019-03-29T08:31:25.880Z,14.90
2019-03-29T08:33:59.551Z,14.70
2019-03-29T08:36:33.304Z,14.80
2019-03-29T08:39:10.049Z,15.00
2019-03-29T08:41:42.583Z,14.90
2019-03-29T08:44:16.385Z,15.10
2019-03-29T08:46:50.153Z,14.80
2019-03-29T08:49:23.771Z,15.00
2019-03-29T08:51:57.493Z,15.20
2019-03-29T08:54:31.103Z,15.40
2019-03-29T08:57:04.748Z,14.80
2019-03-29T08:59:38.390Z,14.80
2019-03-29T09:02:12.167Z,14.50
2019-03-29T09:04:46.177Z,14.50
2019-03-29T09:07:19.853Z,14.60
2019-03-29T09:09:54.600Z,14.70
2019-03-29T09:12:28.366Z,14.90
2019-03-29T09:15:04.071Z,14.60
2019-03-29T09:17:37.547Z,14.80
2019-03-29T09:20:11.625Z,14.40
2019-03-29T09:22:45.423Z,14.60
2019-03-29T09:25:21.016Z,14.50
2019-03-29T09:27:54.760Z,14.50
2019-03-29T09:30:28.724Z,14.80
2019-03-29T09:33:02.353Z,15.20
2019-03-29T09:35:35.969Z,15.20
2019-03-29T09:38:09.748Z,15.00
2019-03-29T09:40:49.664Z,14.80
2019-03-29T09:43:18.905Z,14.90
2019-03-29T09:45:52.747Z,14.70
2019-03-29T09:48:26.500Z,14.80
2019-03-29T09:51:00.125Z,14.60
2019-03-29T09:53:33.859Z,14.30
2019-03-29T09:56:07.542Z,14.50
2019-03-29T09:58:41.141Z,14.50
2019-03-29T10:01:14.835Z,14.70
2019-03-29T10:03:48.455Z,15.20
2019-03-29T10:06:22.269Z,15.60
2019-03-29T10:08:55.877Z,15.60
2019-03-29T10:11:29.510Z,15.80
2019-03-29T10:14:03.314Z,15.90
2019-03-29T10:16:37.041Z,15.80
2019-03-29T10:19:10.872Z,15.60
2019-03-29T10:21:44.598Z,15.80
2019-03-29T10:24:18.262Z,16.00
2019-03-29T10:26:51.936Z,16.10
2019-03-29T10:29:25.664Z,15.60
2019-03-29T10:31:59.319Z,15.40
2019-03-29T10:34:37.326Z,15.10
2019-03-29T10:37:09.615Z,15.20
2019-03-29T10:39:43.246Z,15.30
2019-03-29T10:42:18.790Z,15.10
2019-03-29T10:44:52.442Z,15.30
2019-03-29T10:47:42.371Z,15.60
2019-03-29T10:50:01.830Z,15.60
2019-03-29T10:52:35.747Z,15.40
2019-03-29T10:55:09.524Z,15.60
2019-03-29T10:57:43.416Z,15.40
2019-03-29T11:00:32.174Z,15.30
2019-03-29T11:03:06.687Z,15.00
2019-03-29T11:05:40.499Z,15.10
2019-03-29T11:08:14.272Z,15.00
2019-03-29T11:10:48.069Z,15.00
2019-03-29T11:13:21.754Z,15.00
2019-03-29T11:15:55.393Z,15.20
2019-03-29T11:18:29.093Z,15.40
2019-03-29T11:21:03.537Z,15.40
2019-03-29T11:23:37.525Z,15.30
2019-03-29T11:26:11.169Z,15.60
2019-03-29T11:28:44.922Z,15.60
2019-03-29T11:31:19.951Z,15.60
2019-03-29T11:33:54.759Z,15.60
2019-03-29T11:36:28.568Z,15.60
2019-03-29T11:39:03.914Z,15.70
2019-03-29T11:41:38.863Z,15.30
2019-03-29T11:44:12.641Z,15.20
2019-03-29T11:46:46.426Z,15.00
2019-03-29T11:49:20.055Z,15.00
2019-03-29T11:51:53.926Z,14.90
2019-03-29T11:54:27.688Z,14.70
2019-03-29T11:57:01.491Z,14.70
2019-03-29T11:59:35.125Z,14.80
2019-03-29T12:02:08.812Z,15.20
2019-03-29T12:04:42.493Z,15.20
2019-03-29T12:07:16.554Z,14.90
2019-03-29T12:09:50.274Z,15.00
2019-03-29T12:12:27.387Z,15.00
2019-03-29T12:14:59.599Z,14.80
2019-03-29T12:17:33.339Z,15.00
2019-03-29T12:20:07.945Z,15.10
2019-03-29T12:22:41.628Z,15.10
2019-03-29T12:25:15.237Z,15.20
2019-03-29T12:27:48.880Z,15.20
2019-03-29T12:30:31.277Z,15.30
2019-03-29T12:32:58.287Z,15.40
2019-03-29T12:35:31.911Z,15.60
2019-03-29T12:38:05.652Z,15.50
2019-03-29T12:40:39.437Z,15.50
2019-03-29T12:43:13.216Z,15.60
2019-03-29T12:45:47.040Z,15.50
2019-03-29T12:48:20.680Z,15.60
2019-03-29T12:50:54.392Z,15.50
2019-03-29T12:53:28.144Z,15.60
2019-03-29T12:56:01.894Z,15.70
2019-03-29T12:58:35.744Z,15.80
2019-03-29T13:01:09.518Z,15.70
2019-03-29T13:03:43.280Z,15.90
2019-03-29T13:06:16.941Z,15.70
2019-03-29T13:08:50.777Z,15.70
2019-03-29T13:11:24.405Z,15.80
2019-03-29T13:14:09.496Z,15.80
2019-03-29T13:16:33.842Z,15.90
2019-03-29T13:19:07.509Z,16.00
2019-03-29T13:21:41.233Z,16.10
2019-03-29T13:24:16.338Z,16.00
2019-03-29T13:26:50.222Z,16.00
2019-03-29T13:29:26.176Z,15.90
2019-03-29T13:31:59.835Z,16.00
2019-03-29T13:34:33.481Z,16.10
2019-03-29T13:37:07.115Z,16.10
2019-03-29T13:39:40.868Z,16.10
2019-03-29T13:42:14.619Z,16.00
2019-03-29T13:44:48.415Z,16.10
2019-03-29T13:47:22.200Z,16.20
2019-03-29T13:49:57.044Z,16.10
2019-03-29T13:52:31.941Z,16.20
2019-03-29T13:55:06.745Z,16.20
2019-03-29T13:57:40.403Z,16.30
2019-03-29T14:00:14.589Z,16.30
2019-03-29T14:02:48.219Z,16.30
2019-03-29T14:05:21.831Z,16.40
2019-03-29T14:07:55.490Z,16.40
2019-03-29T14:10:29.141Z,16.40
2019-03-29T14:13:04.627Z,16.40
2019-03-29T14:15:38.291Z,16.40
2019-03-29T14:18:11.957Z,16.40
2019-03-29T14:20:45.652Z,16.40
2019-03-29T14:23:19.404Z,16.40
2019-03-29T14:25:53.136Z,16.30
2019-03-29T14:28:26.807Z,16.40
2019-03-29T14:31:00.577Z,16.50
2019-03-29T14:33:35.541Z,16.40
2019-03-29T14:36:10.393Z,16.40
2019-03-29T14:38:44.052Z,16.40
2019-03-29T14:41:17.952Z,16.50
2019-03-29T14:43:51.729Z,16.50
2019-03-29T14:46:25.381Z,16.70
2019-03-29T14:48:59.127Z,16.70
2019-03-29T14:51:33.048Z,16.70
2019-03-29T14:54:06.703Z,16.70
2019-03-29T14:56:40.488Z,16.70
2019-03-29T14:59:14.099Z,16.90
2019-03-29T15:01:47.927Z,17.00
2019-03-29T15:04:21.789Z,17.00
2019-03-29T15:06:56.550Z,17.00
2019-03-29T15:09:30.290Z,16.90
2019-03-29T15:12:06.705Z,16.90
2019-03-29T15:14:39.590Z,16.90
2019-03-29T15:17:13.245Z,16.90
2019-03-29T15:19:46.913Z,16.70
2019-03-29T15:22:21.898Z,16.70
2019-03-29T15:24:55.529Z,16.70
2019-03-29T15:27:29.527Z,16.80
2019-03-29T15:30:04.027Z,16.90
2019-03-29T15:32:37.720Z,16.90
2019-03-29T15:35:11.628Z,17.00
2019-03-29T15:37:46.546Z,16.90
2019-03-29T15:40:20.224Z,16.90
2019-03-29T15:42:55.238Z,16.90
2019-03-29T15:45:28.920Z,16.90
2019-03-29T15:48:02.581Z,16.90
2019-03-29T15:50:36.476Z,16.90
2019-03-29T15:53:10.246Z,16.80
2019-03-29T15:55:44.096Z,16.90
2019-03-29T15:58:17.878Z,16.80
2019-03-29T16:00:51.768Z,16.80
2019-03-29T16:03:25.568Z,16.70
2019-03-29T16:05:59.283Z,16.80
2019-03-29T16:08:32.980Z,16.80
2019-03-29T16:11:17.168Z,16.80
2019-03-29T16:13:45.115Z,16.80
2019-03-29T16:16:18.836Z,16.90
2019-03-29T16:18:52.612Z,16.80
2019-03-29T16:21:26.519Z,16.80
2019-03-29T16:24:00.200Z,16.70
2019-03-29T16:26:33.866Z,16.70
2019-03-29T16:29:07.520Z,16.70
2019-03-29T16:31:43.716Z,16.70
2019-03-29T16:34:18.363Z,16.60
2019-03-29T16:36:52.015Z,16.50
2019-03-29T16:39:25.849Z,16.50
2019-03-29T16:41:59.606Z,16.50
2019-03-29T16:44:33.277Z,16.40
2019-03-29T16:47:07.005Z,16.30
2019-03-29T16:49:40.694Z,16.40
2019-03-29T16:52:14.332Z,16.40
2019-03-29T16:54:48.013Z,16.30
2019-03-29T16:57:21.689Z,16.30
2019-03-29T16:59:55.351Z,16.30
2019-03-29T17:02:28.967Z,16.30
2019-03-29T17:05:02.999Z,16.20
2019-03-29T17:07:37.022Z,16.20
2019-03-29T17:10:12.013Z,16.20
2019-03-29T17:12:45.670Z,16.10
2019-03-29T17:15:19.350Z,16.00
2019-03-29T17:17:52.995Z,16.00
2019-03-29T17:20:26.681Z,15.90
2019-03-29T17:23:00.443Z,15.90
2019-03-29T17:25:34.226Z,15.90
2019-03-29T17:28:07.943Z,15.80
2019-03-29T17:30:56.566Z,15.70
2019-03-29T17:33:30.340Z,15.60
2019-03-29T17:36:04.129Z,15.50
2019-03-29T17:38:38.198Z,15.50
2019-03-29T17:41:12.047Z,15.40
2019-03-29T17:43:45.766Z,15.40
2019-03-29T17:46:19.448Z,15.30
2019-03-29T17:48:53.532Z,15.20
2019-03-29T17:51:27.201Z,15.20
2019-03-29T17:54:01.013Z,15.10
2019-03-29T17:56:34.867Z,15.00
2019-03-29T17:59:08.637Z,14.90
2019-03-29T18:01:42.330Z,14.80
2019-03-29T18:04:17.244Z,14.70
2019-03-29T18:06:50.857Z,14.60
2019-03-29T18:09:24.631Z,14.40
2019-03-29T18:11:58.314Z,14.30
2019-03-29T18:14:32.011Z,14.30
2019-03-29T18:17:05.794Z,14.20
2019-03-29T18:19:40.590Z,14.20
2019-03-29T18:22:14.384Z,14.00
2019-03-29T18:24:48.019Z,13.90
2019-03-29T18:27:21.750Z,13.90
2019-03-29T18:29:55.505Z,13.70
2019-03-29T18:32:30.471Z,13.40
2019-03-29T18:35:05.363Z,13.00
2019-03-29T18:37:41.500Z,12.80
2019-03-29T18:40:25.159Z,12.60
2019-03-29T18:42:58.968Z,12.60
2019-03-29T18:45:33.191Z,12.60
2019-03-29T18:48:11.493Z,12.50
2019-03-29T18:50:45.252Z,12.40
2019-03-29T18:53:19.016Z,12.30
2019-03-29T18:55:52.938Z,12.30
2019-03-29T18:58:27.714Z,12.30
2019-03-29T19:01:01.721Z,12.30
2019-03-29T19:03:35.511Z,12.40
2019-03-29T19:06:09.229Z,12.30
2019-03-29T19:08:42.939Z,12.20
2019-03-29T19:11:16.905Z,12.10
2019-03-29T19:13:50.567Z,12.00
2019-03-29T19:16:24.484Z,11.90
2019-03-29T19:19:09.359Z,11.80
2019-03-29T19:21:33.905Z,11.70
2019-03-29T19:24:07.613Z,11.60
2019-03-29T19:26:41.277Z,11.60
2019-03-29T19:29:15.164Z,11.50
2019-03-29T19:31:48.835Z,11.40
2019-03-29T19:34:22.561Z,11.30
2019-03-29T19:37:01.569Z,11.40
2019-03-29T19:39:38.320Z,11.40
2019-03-29T19:42:12.067Z,11.40
2019-03-29T19:44:49.305Z,11.30
2019-03-29T19:47:36.524Z,11.20
2019-03-29T19:50:15.269Z,11.10
2019-03-29T19:52:48.970Z,11.10
2019-03-29T19:55:22.838Z,11.00
2019-03-29T19:57:56.635Z,11.00
2019-03-29T20:00:38.923Z,10.90
2019-03-29T20:03:13.671Z,11.00
2019-03-29T20:05:47.499Z,10.80
2019-03-29T20:08:21.278Z,10.70
2019-03-29T20:10:54.996Z,10.50
2019-03-29T20:13:28.731Z,10.50
2019-03-29T20:16:02.619Z,10.70
2019-03-29T20:18:36.314Z,10.80
2019-03-29T20:21:10.236Z,10.80
2019-03-29T20:23:43.936Z,10.70
2019-03-29T20:26:17.821Z,10.70
2019-03-29T20:28:51.614Z,10.80
2019-03-29T20:31:25.584Z,10.80
2019-03-29T20:33:59.274Z,10.80
2019-03-29T20:36:32.992Z,10.70
2019-03-29T20:39:07.347Z,10.60
2019-03-29T20:41:41.377Z,10.50
2019-03-29T20:44:15.308Z,10.50
2019-03-29T20:46:49.055Z,10.50
2019-03-29T20:49:22.740Z,10.40
2019-03-29T20:51:56.609Z,10.40
2019-03-29T20:54:30.501Z,10.30
2019-03-29T20:57:04.234Z,10.30
2019-03-29T20:59:38.035Z,10.20
2019-03-29T21:02:11.774Z,10.30
2019-03-29T21:04:45.561Z,10.30
2019-03-29T21:07:19.372Z,10.30
2019-03-29T21:09:53.067Z,10.20
2019-03-29T21:12:26.877Z,10.20
2019-03-29T21:15:00.533Z,10.10
2019-03-29T21:17:34.443Z,10.10
2019-03-29T21:20:08.909Z,10.00
2019-03-29T21:22:42.596Z,10.00
2019-03-29T21:25:16.233Z,9.90
2019-03-29T21:27:49.956Z,9.80
2019-03-29T21:30:23.776Z,9.80
2019-03-29T21:32:57.468Z,9.70
2019-03-29T21:35:31.191Z,9.70
2019-03-29T21:38:04.892Z,9.60
2019-03-29T21:40:38.546Z,9.50
2019-03-29T21:43:12.328Z,9.40
2019-03-29T21:45:47.366Z,9.40
2019-03-29T21:48:28.550Z,9.30
2019-03-29T21:50:57.006Z,9.30
2019-03-29T21:53:30.725Z,9.20
2019-03-29T21:56:04.560Z,9.10
2019-03-29T21:58:38.405Z,9.00
2019-03-29T22:01:12.502Z,8.90
2019-03-29T22:03:46.179Z,8.80
2019-03-29T22:06:19.966Z,8.70
2019-03-29T22:08:53.868Z,8.60
2019-03-29T22:11:27.811Z,8.50
2019-03-29T22:14:01.589Z,8.40
2019-03-29T22:16:36.357Z,8.40
2019-03-29T22:19:10.012Z,8.30
2019-03-29T22:21:44.817Z,8.40
2019-03-29T22:24:18.577Z,8.40
2019-03-29T22:26:52.238Z,8.40
2019-03-29T22:29:25.998Z,8.50
2019-03-29T22:31:59.774Z,8.40
2019-03-29T22:34:33.623Z,8.40
2019-03-29T22:37:08.433Z,8.40
2019-03-29T22:39:42.158Z,8.40
2019-03-29T22:42:15.934Z,8.30
2019-03-29T22:44:49.796Z,8.30
2019-03-29T22:47:23.726Z,8.30
2019-03-29T22:49:57.381Z,8.30
2019-03-29T22:52:31.268Z,8.40
2019-03-29T22:55:06.122Z,8.30
2019-03-29T22:57:39.826Z,8.30
2019-03-29T23:00:25.108Z,8.30
2019-03-29T23:03:00.876Z,8.30
2019-03-29T23:05:34.780Z,8.30
2019-03-29T23:08:08.560Z,8.30
2019-03-29T23:10:42.327Z,8.30
2019-03-29T23:13:15.986Z,8.20
2019-03-29T23:15:49.612Z,8.20
2019-03-29T23:18:23.274Z,8.20
2019-03-29T23:20:57.111Z,8.10
2019-03-29T23:23:30.876Z,8.10
2019-03-29T23:26:04.610Z,8.00
2019-03-29T23:28:38.269Z,7.90
2019-03-29T23:31:12.096Z,7.90
2019-03-29T23:33:46.708Z,7.80
2019-03-29T23:36:20.449Z,7.70
2019-03-29T23:38:54.101Z,7.70
2019-03-29T23:41:27.772Z,7.60
2019-03-29T23:44:01.440Z,7.50
2019-03-29T23:46:35.197Z,7.50
2019-03-29T23:49:20.379Z,7.50
2019-03-29T23:51:44.617Z,7.50
2019-03-29T23:54:18.441Z,7.50
2019-03-29T23:56:52.331Z,7.50
2019-03-29T23:59:26.203Z,7.50
